sensor_id;sensor_type;location;lat;lon;timestamp;P1;durP1;ratioP1;P2;durP2;ratioP2
32198;SDS011;19221;42.656;21.156;2023-04-07T00:00:03;134.05;;;81.65;;
32198;SDS011;19221;42.656;21.156;2023-04-07T00:02:30;121.60;;;76.22;;
32198;SDS011;19221;42.656;21.156;2023-04-07T00:05:00;111.70;;;73.22;;
32198;SDS011;19221;42.656;21.156;2023-04-07T00:07:27;112.22;;;73.30;;
32198;SDS011;19221;42.656;21.156;2023-04-07T00:09:52;111.97;;;67.75;;
32198;SDS011;19221;42.656;21.156;2023-04-07T00:12:18;103.18;;;64.03;;
32198;SDS011;19221;42.656;21.156;2023-04-07T00:14:47;104.15;;;65.10;;
32198;SDS011;19221;42.656;21.156;2023-04-07T00:17:12;97.68;;;62.13;;
32198;SDS011;19221;42.656;21.156;2023-04-07T00:19:38;94.30;;;55.90;;
32198;SDS011;19221;42.656;21.156;2023-04-07T00:22:09;69.63;;;45.15;;
32198;SDS011;19221;42.656;21.156;2023-04-07T00:24:37;72.22;;;45.97;;
32198;SDS011;19221;42.656;21.156;2023-04-07T00:27:03;63.17;;;43.40;;
32198;SDS011;19221;42.656;21.156;2023-04-07T00:29:28;75.03;;;46.42;;
32198;SDS011;19221;42.656;21.156;2023-04-07T00:32:00;93.35;;;54.55;;
32198;SDS011;19221;42.656;21.156;2023-04-07T00:34:26;77.80;;;45.25;;
32198;SDS011;19221;42.656;21.156;2023-04-07T00:36:52;85.90;;;51.03;;
32198;SDS011;19221;42.656;21.156;2023-04-07T00:39:18;107.47;;;65.32;;
32198;SDS011;19221;42.656;21.156;2023-04-07T00:42:04;104.22;;;68.15;;
32198;SDS011;19221;42.656;21.156;2023-04-07T00:44:32;110.53;;;69.93;;
32198;SDS011;19221;42.656;21.156;2023-04-07T00:47:01;91.43;;;57.65;;
32198;SDS011;19221;42.656;21.156;2023-04-07T00:49:26;75.18;;;48.22;;
32198;SDS011;19221;42.656;21.156;2023-04-07T00:51:58;74.63;;;47.22;;
32198;SDS011;19221;42.656;21.156;2023-04-07T00:54:24;74.13;;;45.03;;
32198;SDS011;19221;42.656;21.156;2023-04-07T00:56:51;64.00;;;41.42;;
32198;SDS011;19221;42.656;21.156;2023-04-07T00:59:16;62.65;;;41.70;;
32198;SDS011;19221;42.656;21.156;2023-04-07T01:04:31;65.40;;;39.83;;
32198;SDS011;19221;42.656;21.156;2023-04-07T01:07:03;53.70;;;35.83;;
32198;SDS011;19221;42.656;21.156;2023-04-07T01:14:20;45.95;;;32.58;;
32198;SDS011;19221;42.656;21.156;2023-04-07T01:16:50;45.70;;;30.75;;
32198;SDS011;19221;42.656;21.156;2023-04-07T01:21:48;40.65;;;27.85;;
32198;SDS011;19221;42.656;21.156;2023-04-07T01:24:33;39.63;;;28.45;;
32198;SDS011;19221;42.656;21.156;2023-04-07T01:27:20;43.38;;;28.90;;
32198;SDS011;19221;42.656;21.156;2023-04-07T01:29:49;39.60;;;28.00;;
32198;SDS011;19221;42.656;21.156;2023-04-07T01:32:17;44.42;;;30.20;;
32198;SDS011;19221;42.656;21.156;2023-04-07T01:34:44;41.50;;;29.30;;
32198;SDS011;19221;42.656;21.156;2023-04-07T01:37:12;44.80;;;29.77;;
32198;SDS011;19221;42.656;21.156;2023-04-07T01:39:39;40.75;;;29.88;;
32198;SDS011;19221;42.656;21.156;2023-04-07T01:42:05;47.03;;;33.17;;
32198;SDS011;19221;42.656;21.156;2023-04-07T01:44:31;49.80;;;32.53;;
32198;SDS011;19221;42.656;21.156;2023-04-07T01:46:59;48.75;;;34.38;;
32198;SDS011;19221;42.656;21.156;2023-04-07T01:49:32;47.40;;;33.30;;
32198;SDS011;19221;42.656;21.156;2023-04-07T01:51:58;48.05;;;34.45;;
32198;SDS011;19221;42.656;21.156;2023-04-07T01:57:10;48.85;;;32.75;;
32198;SDS011;19221;42.656;21.156;2023-04-07T01:59:41;49.45;;;33.47;;
32198;SDS011;19221;42.656;21.156;2023-04-07T02:02:12;49.50;;;33.20;;
32198;SDS011;19221;42.656;21.156;2023-04-07T02:08:02;63.15;;;42.17;;
32198;SDS011;19221;42.656;21.156;2023-04-07T02:10:36;65.00;;;41.35;;
32198;SDS011;19221;42.656;21.156;2023-04-07T02:16:16;46.70;;;32.53;;
32198;SDS011;19221;42.656;21.156;2023-04-07T02:18:58;53.78;;;34.25;;
32198;SDS011;19221;42.656;21.156;2023-04-07T02:21:33;50.92;;;33.85;;
32198;SDS011;19221;42.656;21.156;2023-04-07T02:24:04;49.85;;;32.45;;
32198;SDS011;19221;42.656;21.156;2023-04-07T02:28:57;45.42;;;30.23;;
32198;SDS011;19221;42.656;21.156;2023-04-07T02:31:26;45.50;;;29.05;;
32198;SDS011;19221;42.656;21.156;2023-04-07T02:33:51;40.55;;;27.80;;
32198;SDS011;19221;42.656;21.156;2023-04-07T02:36:17;44.00;;;28.90;;
32198;SDS011;19221;42.656;21.156;2023-04-07T02:38:43;43.42;;;29.77;;
32198;SDS011;19221;42.656;21.156;2023-04-07T02:41:08;41.72;;;29.52;;
32198;SDS011;19221;42.656;21.156;2023-04-07T02:43:34;43.95;;;29.33;;
32198;SDS011;19221;42.656;21.156;2023-04-07T02:46:05;42.20;;;29.77;;
32198;SDS011;19221;42.656;21.156;2023-04-07T02:49:00;43.35;;;27.80;;
32198;SDS011;19221;42.656;21.156;2023-04-07T02:51:49;46.60;;;28.52;;
32198;SDS011;19221;42.656;21.156;2023-04-07T02:54:26;40.80;;;27.75;;
32198;SDS011;19221;42.656;21.156;2023-04-07T02:57:11;38.05;;;26.80;;
32198;SDS011;19221;42.656;21.156;2023-04-07T03:00:13;36.35;;;25.75;;
32198;SDS011;19221;42.656;21.156;2023-04-07T03:03:04;39.92;;;26.50;;
32198;SDS011;19221;42.656;21.156;2023-04-07T03:05:30;40.63;;;26.83;;
32198;SDS011;19221;42.656;21.156;2023-04-07T03:07:59;38.78;;;28.05;;
32198;SDS011;19221;42.656;21.156;2023-04-07T03:10:34;39.28;;;27.00;;
32198;SDS011;19221;42.656;21.156;2023-04-07T03:13:00;34.13;;;25.25;;
32198;SDS011;19221;42.656;21.156;2023-04-07T03:15:26;32.47;;;24.30;;
32198;SDS011;19221;42.656;21.156;2023-04-07T03:17:54;35.13;;;24.17;;
32198;SDS011;19221;42.656;21.156;2023-04-07T03:20:34;35.55;;;24.80;;
32198;SDS011;19221;42.656;21.156;2023-04-07T03:23:00;37.30;;;23.85;;
32198;SDS011;19221;42.656;21.156;2023-04-07T03:25:31;32.70;;;23.77;;
32198;SDS011;19221;42.656;21.156;2023-04-07T03:27:59;35.63;;;23.55;;
32198;SDS011;19221;42.656;21.156;2023-04-07T03:30:48;35.20;;;23.05;;
32198;SDS011;19221;42.656;21.156;2023-04-07T03:36:11;38.38;;;25.35;;
32198;SDS011;19221;42.656;21.156;2023-04-07T03:38:47;36.45;;;24.55;;
32198;SDS011;19221;42.656;21.156;2023-04-07T03:41:15;35.78;;;25.27;;
32198;SDS011;19221;42.656;21.156;2023-04-07T03:46:32;35.45;;;24.52;;
32198;SDS011;19221;42.656;21.156;2023-04-07T03:49:10;35.60;;;25.58;;
32198;SDS011;19221;42.656;21.156;2023-04-07T03:54:52;33.75;;;23.42;;
32198;SDS011;19221;42.656;21.156;2023-04-07T03:57:23;34.40;;;24.35;;
32198;SDS011;19221;42.656;21.156;2023-04-07T04:00:01;38.25;;;25.90;;
32198;SDS011;19221;42.656;21.156;2023-04-07T04:02:41;35.17;;;24.70;;
32198;SDS011;19221;42.656;21.156;2023-04-07T04:08:44;37.55;;;24.90;;
32198;SDS011;19221;42.656;21.156;2023-04-07T04:11:12;41.08;;;25.30;;
32198;SDS011;19221;42.656;21.156;2023-04-07T04:13:39;36.38;;;25.17;;
32198;SDS011;19221;42.656;21.156;2023-04-07T04:18:57;39.22;;;24.42;;
32198;SDS011;19221;42.656;21.156;2023-04-07T04:21:28;36.10;;;24.70;;
32198;SDS011;19221;42.656;21.156;2023-04-07T04:23:54;33.85;;;23.38;;
32198;SDS011;19221;42.656;21.156;2023-04-07T04:26:22;34.67;;;24.30;;
32198;SDS011;19221;42.656;21.156;2023-04-07T04:28:50;40.22;;;22.88;;
32198;SDS011;19221;42.656;21.156;2023-04-07T04:34:10;38.65;;;24.65;;
32198;SDS011;19221;42.656;21.156;2023-04-07T04:36:36;36.08;;;23.35;;
32198;SDS011;19221;42.656;21.156;2023-04-07T04:39:12;38.85;;;22.95;;
32198;SDS011;19221;42.656;21.156;2023-04-07T04:41:51;35.33;;;22.67;;
32198;SDS011;19221;42.656;21.156;2023-04-07T04:44:50;36.42;;;23.15;;
32198;SDS011;19221;42.656;21.156;2023-04-07T04:47:20;39.40;;;24.55;;
32198;SDS011;19221;42.656;21.156;2023-04-07T04:49:46;34.85;;;22.58;;
32198;SDS011;19221;42.656;21.156;2023-04-07T04:52:12;33.65;;;23.83;;
32198;SDS011;19221;42.656;21.156;2023-04-07T04:54:38;32.97;;;22.25;;
32198;SDS011;19221;42.656;21.156;2023-04-07T04:57:04;39.85;;;23.20;;
32198;SDS011;19221;42.656;21.156;2023-04-07T04:59:30;38.45;;;24.25;;
32198;SDS011;19221;42.656;21.156;2023-04-07T05:01:56;38.22;;;25.02;;
32198;SDS011;19221;42.656;21.156;2023-04-07T05:04:21;39.28;;;23.48;;
32198;SDS011;19221;42.656;21.156;2023-04-07T05:06:47;36.72;;;24.70;;
32198;SDS011;19221;42.656;21.156;2023-04-07T05:09:12;40.65;;;24.23;;
32198;SDS011;19221;42.656;21.156;2023-04-07T05:11:39;42.35;;;26.55;;
32198;SDS011;19221;42.656;21.156;2023-04-07T05:14:05;41.67;;;25.50;;
32198;SDS011;19221;42.656;21.156;2023-04-07T05:16:30;43.63;;;26.80;;
32198;SDS011;19221;42.656;21.156;2023-04-07T05:18:56;41.17;;;27.55;;
32198;SDS011;19221;42.656;21.156;2023-04-07T05:21:22;40.78;;;28.00;;
32198;SDS011;19221;42.656;21.156;2023-04-07T05:23:47;46.90;;;33.78;;
32198;SDS011;19221;42.656;21.156;2023-04-07T05:26:13;60.03;;;39.28;;
32198;SDS011;19221;42.656;21.156;2023-04-07T05:28:39;53.08;;;33.75;;
32198;SDS011;19221;42.656;21.156;2023-04-07T05:31:04;70.35;;;44.95;;
32198;SDS011;19221;42.656;21.156;2023-04-07T05:33:30;68.35;;;46.90;;
32198;SDS011;19221;42.656;21.156;2023-04-07T05:35:56;57.20;;;38.30;;
32198;SDS011;19221;42.656;21.156;2023-04-07T05:38:21;57.60;;;37.60;;
32198;SDS011;19221;42.656;21.156;2023-04-07T05:40:47;62.90;;;41.60;;
32198;SDS011;19221;42.656;21.156;2023-04-07T05:43:13;62.55;;;38.90;;
32198;SDS011;19221;42.656;21.156;2023-04-07T05:45:38;62.97;;;36.75;;
32198;SDS011;19221;42.656;21.156;2023-04-07T05:48:04;64.43;;;37.05;;
32198;SDS011;19221;42.656;21.156;2023-04-07T05:50:30;57.05;;;34.25;;
32198;SDS011;19221;42.656;21.156;2023-04-07T05:52:56;57.35;;;32.50;;
32198;SDS011;19221;42.656;21.156;2023-04-07T05:55:21;51.20;;;30.27;;
32198;SDS011;19221;42.656;21.156;2023-04-07T05:57:47;46.08;;;27.83;;
32198;SDS011;19221;42.656;21.156;2023-04-07T06:00:13;26.33;;;17.23;;
32198;SDS011;19221;42.656;21.156;2023-04-07T06:02:39;33.30;;;19.05;;
32198;SDS011;19221;42.656;21.156;2023-04-07T06:05:05;30.75;;;17.67;;
32198;SDS011;19221;42.656;21.156;2023-04-07T06:07:31;28.40;;;18.13;;
32198;SDS011;19221;42.656;21.156;2023-04-07T06:09:57;44.55;;;27.25;;
32198;SDS011;19221;42.656;21.156;2023-04-07T06:12:22;58.17;;;37.83;;
32198;SDS011;19221;42.656;21.156;2023-04-07T06:14:54;30.70;;;20.20;;
32198;SDS011;19221;42.656;21.156;2023-04-07T06:17:20;28.52;;;19.27;;
32198;SDS011;19221;42.656;21.156;2023-04-07T06:19:46;38.92;;;19.40;;
32198;SDS011;19221;42.656;21.156;2023-04-07T06:22:11;28.10;;;17.48;;
32198;SDS011;19221;42.656;21.156;2023-04-07T06:24:37;30.45;;;19.90;;
32198;SDS011;19221;42.656;21.156;2023-04-07T06:27:03;31.73;;;18.88;;
32198;SDS011;19221;42.656;21.156;2023-04-07T06:29:29;27.88;;;18.08;;
32198;SDS011;19221;42.656;21.156;2023-04-07T06:31:54;27.73;;;17.50;;
32198;SDS011;19221;42.656;21.156;2023-04-07T06:34:20;33.78;;;17.88;;
32198;SDS011;19221;42.656;21.156;2023-04-07T06:36:46;30.67;;;16.73;;
32198;SDS011;19221;42.656;21.156;2023-04-07T06:39:12;34.70;;;19.17;;
32198;SDS011;19221;42.656;21.156;2023-04-07T06:41:37;28.83;;;16.98;;
32198;SDS011;19221;42.656;21.156;2023-04-07T06:44:04;27.90;;;16.98;;
32198;SDS011;19221;42.656;21.156;2023-04-07T06:46:31;32.72;;;17.48;;
32198;SDS011;19221;42.656;21.156;2023-04-07T06:48:57;26.73;;;16.25;;
32198;SDS011;19221;42.656;21.156;2023-04-07T06:51:23;28.83;;;17.10;;
32198;SDS011;19221;42.656;21.156;2023-04-07T06:53:48;30.55;;;17.67;;
32198;SDS011;19221;42.656;21.156;2023-04-07T06:56:14;32.13;;;18.42;;
32198;SDS011;19221;42.656;21.156;2023-04-07T06:58:40;38.08;;;18.27;;
32198;SDS011;19221;42.656;21.156;2023-04-07T07:01:06;33.08;;;17.50;;
32198;SDS011;19221;42.656;21.156;2023-04-07T07:03:32;28.50;;;16.52;;
32198;SDS011;19221;42.656;21.156;2023-04-07T07:06:00;25.73;;;16.58;;
32198;SDS011;19221;42.656;21.156;2023-04-07T07:08:26;26.80;;;14.40;;
32198;SDS011;19221;42.656;21.156;2023-04-07T07:10:51;28.08;;;14.93;;
32198;SDS011;19221;42.656;21.156;2023-04-07T07:13:18;28.42;;;15.55;;
32198;SDS011;19221;42.656;21.156;2023-04-07T07:15:44;28.48;;;16.48;;
32198;SDS011;19221;42.656;21.156;2023-04-07T07:18:10;23.15;;;15.45;;
32198;SDS011;19221;42.656;21.156;2023-04-07T07:20:36;25.13;;;15.93;;
32198;SDS011;19221;42.656;21.156;2023-04-07T07:23:02;26.55;;;16.63;;
32198;SDS011;19221;42.656;21.156;2023-04-07T07:25:28;29.45;;;17.15;;
32198;SDS011;19221;42.656;21.156;2023-04-07T07:27:54;29.40;;;18.63;;
32198;SDS011;19221;42.656;21.156;2023-04-07T07:30:20;31.83;;;18.60;;
32198;SDS011;19221;42.656;21.156;2023-04-07T07:32:46;32.20;;;19.20;;
32198;SDS011;19221;42.656;21.156;2023-04-07T07:35:12;33.42;;;19.10;;
32198;SDS011;19221;42.656;21.156;2023-04-07T07:37:37;32.70;;;18.55;;
32198;SDS011;19221;42.656;21.156;2023-04-07T07:40:03;47.60;;;20.35;;
32198;SDS011;19221;42.656;21.156;2023-04-07T07:42:29;28.42;;;15.52;;
32198;SDS011;19221;42.656;21.156;2023-04-07T07:44:55;31.70;;;18.17;;
32198;SDS011;19221;42.656;21.156;2023-04-07T07:47:21;33.97;;;15.15;;
32198;SDS011;19221;42.656;21.156;2023-04-07T07:49:47;20.77;;;14.00;;
32198;SDS011;19221;42.656;21.156;2023-04-07T07:52:12;24.23;;;12.68;;
32198;SDS011;19221;42.656;21.156;2023-04-07T07:54:38;19.77;;;12.85;;
32198;SDS011;19221;42.656;21.156;2023-04-07T07:57:04;22.50;;;13.32;;
32198;SDS011;19221;42.656;21.156;2023-04-07T07:59:30;21.20;;;13.15;;
32198;SDS011;19221;42.656;21.156;2023-04-07T08:01:56;24.13;;;13.18;;
32198;SDS011;19221;42.656;21.156;2023-04-07T08:04:22;20.38;;;12.68;;
32198;SDS011;19221;42.656;21.156;2023-04-07T08:06:48;23.92;;;13.50;;
32198;SDS011;19221;42.656;21.156;2023-04-07T08:09:15;23.48;;;13.63;;
32198;SDS011;19221;42.656;21.156;2023-04-07T08:11:41;27.65;;;13.77;;
32198;SDS011;19221;42.656;21.156;2023-04-07T08:14:06;23.33;;;13.32;;
32198;SDS011;19221;42.656;21.156;2023-04-07T08:16:32;36.60;;;15.18;;
32198;SDS011;19221;42.656;21.156;2023-04-07T08:18:58;20.05;;;12.98;;
32198;SDS011;19221;42.656;21.156;2023-04-07T08:21:23;20.88;;;13.02;;
32198;SDS011;19221;42.656;21.156;2023-04-07T08:23:54;30.00;;;15.90;;
32198;SDS011;19221;42.656;21.156;2023-04-07T08:26:20;35.42;;;15.70;;
32198;SDS011;19221;42.656;21.156;2023-04-07T08:28:47;23.20;;;13.65;;
32198;SDS011;19221;42.656;21.156;2023-04-07T08:31:14;25.00;;;13.63;;
32198;SDS011;19221;42.656;21.156;2023-04-07T08:33:40;19.35;;;13.05;;
32198;SDS011;19221;42.656;21.156;2023-04-07T08:36:05;18.80;;;11.98;;
32198;SDS011;19221;42.656;21.156;2023-04-07T08:38:31;17.92;;;12.43;;
32198;SDS011;19221;42.656;21.156;2023-04-07T08:41:02;20.83;;;11.95;;
32198;SDS011;19221;42.656;21.156;2023-04-07T08:45:54;29.65;;;13.32;;
32198;SDS011;19221;42.656;21.156;2023-04-07T08:48:21;22.02;;;12.55;;
32198;SDS011;19221;42.656;21.156;2023-04-07T08:50:48;24.48;;;12.70;;
32198;SDS011;19221;42.656;21.156;2023-04-07T08:53:17;31.35;;;12.63;;
32198;SDS011;19221;42.656;21.156;2023-04-07T08:55:43;22.70;;;12.60;;
32198;SDS011;19221;42.656;21.156;2023-04-07T08:58:09;23.90;;;13.27;;
32198;SDS011;19221;42.656;21.156;2023-04-07T09:00:44;27.25;;;12.85;;
32198;SDS011;19221;42.656;21.156;2023-04-07T09:03:11;25.98;;;13.48;;
32198;SDS011;19221;42.656;21.156;2023-04-07T09:05:37;24.73;;;12.60;;
32198;SDS011;19221;42.656;21.156;2023-04-07T09:08:04;21.05;;;12.85;;
32198;SDS011;19221;42.656;21.156;2023-04-07T09:10:31;20.63;;;13.15;;
32198;SDS011;19221;42.656;21.156;2023-04-07T09:12:57;26.08;;;13.27;;
32198;SDS011;19221;42.656;21.156;2023-04-07T09:15:23;25.83;;;11.30;;
32198;SDS011;19221;42.656;21.156;2023-04-07T09:17:49;24.65;;;13.35;;
32198;SDS011;19221;42.656;21.156;2023-04-07T09:20:15;29.38;;;13.82;;
32198;SDS011;19221;42.656;21.156;2023-04-07T09:22:41;23.83;;;13.35;;
32198;SDS011;19221;42.656;21.156;2023-04-07T09:25:17;22.80;;;14.25;;
32198;SDS011;19221;42.656;21.156;2023-04-07T09:30:39;30.88;;;15.02;;
32198;SDS011;19221;42.656;21.156;2023-04-07T09:33:21;25.17;;;14.73;;
32198;SDS011;19221;42.656;21.156;2023-04-07T09:35:51;29.58;;;14.43;;
32198;SDS011;19221;42.656;21.156;2023-04-07T09:38:20;28.85;;;13.40;;
32198;SDS011;19221;42.656;21.156;2023-04-07T09:40:46;23.73;;;13.32;;
32198;SDS011;19221;42.656;21.156;2023-04-07T09:43:16;23.27;;;13.80;;
32198;SDS011;19221;42.656;21.156;2023-04-07T09:45:41;22.63;;;12.48;;
32198;SDS011;19221;42.656;21.156;2023-04-07T09:48:08;37.60;;;16.30;;
32198;SDS011;19221;42.656;21.156;2023-04-07T09:50:43;32.88;;;15.38;;
32198;SDS011;19221;42.656;21.156;2023-04-07T09:53:14;25.30;;;13.20;;
32198;SDS011;19221;42.656;21.156;2023-04-07T09:55:39;22.52;;;11.65;;
32198;SDS011;19221;42.656;21.156;2023-04-07T09:58:06;23.85;;;12.93;;
32198;SDS011;19221;42.656;21.156;2023-04-07T10:00:32;22.90;;;13.18;;
32198;SDS011;19221;42.656;21.156;2023-04-07T10:02:59;27.35;;;13.52;;
32198;SDS011;19221;42.656;21.156;2023-04-07T10:05:26;15.35;;;10.18;;
32198;SDS011;19221;42.656;21.156;2023-04-07T10:07:52;21.00;;;12.38;;
32198;SDS011;19221;42.656;21.156;2023-04-07T10:10:18;34.83;;;15.15;;
32198;SDS011;19221;42.656;21.156;2023-04-07T10:12:44;20.25;;;10.48;;
32198;SDS011;19221;42.656;21.156;2023-04-07T10:15:13;19.23;;;10.20;;
32198;SDS011;19221;42.656;21.156;2023-04-07T10:17:45;16.13;;;11.30;;
32198;SDS011;19221;42.656;21.156;2023-04-07T10:20:12;17.43;;;11.47;;
32198;SDS011;19221;42.656;21.156;2023-04-07T10:22:40;15.50;;;9.20;;
32198;SDS011;19221;42.656;21.156;2023-04-07T10:25:07;14.05;;;9.77;;
32198;SDS011;19221;42.656;21.156;2023-04-07T10:27:38;21.50;;;10.20;;
32198;SDS011;19221;42.656;21.156;2023-04-07T10:30:13;16.98;;;9.50;;
32198;SDS011;19221;42.656;21.156;2023-04-07T10:32:46;14.40;;;9.65;;
32198;SDS011;19221;42.656;21.156;2023-04-07T10:35:12;14.45;;;9.45;;
32198;SDS011;19221;42.656;21.156;2023-04-07T10:37:38;19.92;;;9.93;;
32198;SDS011;19221;42.656;21.156;2023-04-07T10:42:45;12.25;;;8.45;;
32198;SDS011;19221;42.656;21.156;2023-04-07T10:45:12;18.10;;;10.50;;
32198;SDS011;19221;42.656;21.156;2023-04-07T10:50:22;12.90;;;8.75;;
32198;SDS011;19221;42.656;21.156;2023-04-07T10:52:48;14.57;;;6.93;;
32198;SDS011;19221;42.656;21.156;2023-04-07T10:55:30;13.93;;;8.18;;
32198;SDS011;19221;42.656;21.156;2023-04-07T11:00:41;19.58;;;9.18;;
32198;SDS011;19221;42.656;21.156;2023-04-07T11:03:11;17.15;;;9.00;;
32198;SDS011;19221;42.656;21.156;2023-04-07T11:05:39;15.18;;;8.40;;
32198;SDS011;19221;42.656;21.156;2023-04-07T11:08:05;24.05;;;13.15;;
32198;SDS011;19221;42.656;21.156;2023-04-07T11:10:32;14.30;;;8.23;;
32198;SDS011;19221;42.656;21.156;2023-04-07T11:13:04;24.48;;;8.90;;
32198;SDS011;19221;42.656;21.156;2023-04-07T11:15:30;18.95;;;10.13;;
32198;SDS011;19221;42.656;21.156;2023-04-07T11:18:12;19.23;;;9.63;;
32198;SDS011;19221;42.656;21.156;2023-04-07T11:20:42;23.67;;;9.90;;
32198;SDS011;19221;42.656;21.156;2023-04-07T11:23:08;13.80;;;9.35;;
32198;SDS011;19221;42.656;21.156;2023-04-07T11:25:35;18.83;;;11.18;;
32198;SDS011;19221;42.656;21.156;2023-04-07T11:28:02;16.88;;;8.90;;
32198;SDS011;19221;42.656;21.156;2023-04-07T11:30:28;17.05;;;10.15;;
32198;SDS011;19221;42.656;21.156;2023-04-07T11:32:54;20.05;;;9.73;;
32198;SDS011;19221;42.656;21.156;2023-04-07T11:35:21;17.08;;;8.00;;
32198;SDS011;19221;42.656;21.156;2023-04-07T11:37:47;23.27;;;8.90;;
32198;SDS011;19221;42.656;21.156;2023-04-07T11:40:12;15.85;;;8.68;;
32198;SDS011;19221;42.656;21.156;2023-04-07T11:42:56;16.90;;;8.23;;
32198;SDS011;19221;42.656;21.156;2023-04-07T11:45:22;15.02;;;7.80;;
32198;SDS011;19221;42.656;21.156;2023-04-07T11:47:47;18.92;;;8.52;;
32198;SDS011;19221;42.656;21.156;2023-04-07T11:50:15;17.23;;;8.75;;
32198;SDS011;19221;42.656;21.156;2023-04-07T11:52:41;13.98;;;9.93;;
32198;SDS011;19221;42.656;21.156;2023-04-07T11:55:15;14.02;;;9.95;;
32198;SDS011;19221;42.656;21.156;2023-04-07T11:57:41;16.73;;;9.88;;
32198;SDS011;19221;42.656;21.156;2023-04-07T12:00:07;16.92;;;11.48;;
32198;SDS011;19221;42.656;21.156;2023-04-07T12:02:33;14.73;;;9.70;;
32198;SDS011;19221;42.656;21.156;2023-04-07T12:04:59;14.38;;;8.25;;
32198;SDS011;19221;42.656;21.156;2023-04-07T12:07:25;14.00;;;7.55;;
32198;SDS011;19221;42.656;21.156;2023-04-07T12:09:52;17.15;;;8.73;;
32198;SDS011;19221;42.656;21.156;2023-04-07T12:12:28;12.73;;;7.72;;
32198;SDS011;19221;42.656;21.156;2023-04-07T12:14:54;12.15;;;7.95;;
32198;SDS011;19221;42.656;21.156;2023-04-07T12:17:21;15.63;;;9.43;;
32198;SDS011;19221;42.656;21.156;2023-04-07T12:19:47;13.23;;;7.93;;
32198;SDS011;19221;42.656;21.156;2023-04-07T12:22:12;12.18;;;8.40;;
32198;SDS011;19221;42.656;21.156;2023-04-07T12:24:38;18.30;;;10.98;;
32198;SDS011;19221;42.656;21.156;2023-04-07T12:27:04;14.60;;;8.38;;
32198;SDS011;19221;42.656;21.156;2023-04-07T12:29:29;15.57;;;9.57;;
32198;SDS011;19221;42.656;21.156;2023-04-07T12:31:55;19.30;;;12.85;;
32198;SDS011;19221;42.656;21.156;2023-04-07T12:34:21;13.65;;;8.57;;
32198;SDS011;19221;42.656;21.156;2023-04-07T12:36:46;11.02;;;7.53;;
32198;SDS011;19221;42.656;21.156;2023-04-07T12:39:12;13.20;;;8.70;;
32198;SDS011;19221;42.656;21.156;2023-04-07T12:41:38;16.48;;;10.27;;
32198;SDS011;19221;42.656;21.156;2023-04-07T12:44:04;22.95;;;12.93;;
32198;SDS011;19221;42.656;21.156;2023-04-07T12:46:30;19.05;;;11.68;;
32198;SDS011;19221;42.656;21.156;2023-04-07T12:48:56;20.73;;;11.75;;
32198;SDS011;19221;42.656;21.156;2023-04-07T12:51:21;14.95;;;10.40;;
32198;SDS011;19221;42.656;21.156;2023-04-07T12:53:47;17.30;;;9.90;;
32198;SDS011;19221;42.656;21.156;2023-04-07T12:56:13;14.82;;;9.38;;
32198;SDS011;19221;42.656;21.156;2023-04-07T12:58:39;14.23;;;9.40;;
32198;SDS011;19221;42.656;21.156;2023-04-07T13:01:05;21.25;;;9.88;;
32198;SDS011;19221;42.656;21.156;2023-04-07T13:03:31;14.48;;;9.60;;
32198;SDS011;19221;42.656;21.156;2023-04-07T13:05:57;21.15;;;14.00;;
32198;SDS011;19221;42.656;21.156;2023-04-07T13:08:26;14.50;;;10.27;;
32198;SDS011;19221;42.656;21.156;2023-04-07T13:10:52;22.88;;;12.80;;
32198;SDS011;19221;42.656;21.156;2023-04-07T13:13:18;24.45;;;10.38;;
32198;SDS011;19221;42.656;21.156;2023-04-07T13:15:43;11.85;;;7.97;;
32198;SDS011;19221;42.656;21.156;2023-04-07T13:18:09;14.20;;;9.70;;
32198;SDS011;19221;42.656;21.156;2023-04-07T13:20:35;12.25;;;9.25;;
32198;SDS011;19221;42.656;21.156;2023-04-07T13:23:00;13.65;;;9.23;;
32198;SDS011;19221;42.656;21.156;2023-04-07T13:25:26;13.82;;;9.88;;
32198;SDS011;19221;42.656;21.156;2023-04-07T13:27:52;15.13;;;10.35;;
32198;SDS011;19221;42.656;21.156;2023-04-07T13:30:17;20.77;;;13.68;;
32198;SDS011;19221;42.656;21.156;2023-04-07T13:32:43;17.58;;;10.93;;
32198;SDS011;19221;42.656;21.156;2023-04-07T13:35:09;21.92;;;14.43;;
32198;SDS011;19221;42.656;21.156;2023-04-07T13:37:34;17.23;;;12.13;;
32198;SDS011;19221;42.656;21.156;2023-04-07T13:40:00;19.63;;;12.25;;
32198;SDS011;19221;42.656;21.156;2023-04-07T13:42:26;21.20;;;12.10;;
32198;SDS011;19221;42.656;21.156;2023-04-07T13:44:51;19.83;;;12.80;;
32198;SDS011;19221;42.656;21.156;2023-04-07T13:47:18;24.58;;;15.52;;
32198;SDS011;19221;42.656;21.156;2023-04-07T13:49:47;21.15;;;14.55;;
32198;SDS011;19221;42.656;21.156;2023-04-07T13:52:13;18.08;;;12.15;;
32198;SDS011;19221;42.656;21.156;2023-04-07T13:54:39;13.90;;;10.55;;
32198;SDS011;19221;42.656;21.156;2023-04-07T13:57:04;16.33;;;11.02;;
32198;SDS011;19221;42.656;21.156;2023-04-07T13:59:30;18.75;;;12.13;;
32198;SDS011;19221;42.656;21.156;2023-04-07T14:01:56;19.63;;;13.57;;
32198;SDS011;19221;42.656;21.156;2023-04-07T14:04:22;17.08;;;11.50;;
32198;SDS011;19221;42.656;21.156;2023-04-07T14:06:47;20.77;;;12.52;;
32198;SDS011;19221;42.656;21.156;2023-04-07T14:09:13;13.90;;;10.00;;
32198;SDS011;19221;42.656;21.156;2023-04-07T14:11:39;14.18;;;11.35;;
32198;SDS011;19221;42.656;21.156;2023-04-07T14:14:04;23.63;;;15.00;;
32198;SDS011;19221;42.656;21.156;2023-04-07T14:16:30;22.27;;;13.82;;
32198;SDS011;19221;42.656;21.156;2023-04-07T14:18:56;25.17;;;15.98;;
32198;SDS011;19221;42.656;21.156;2023-04-07T14:21:22;20.52;;;13.95;;
32198;SDS011;19221;42.656;21.156;2023-04-07T14:23:48;22.73;;;14.73;;
32198;SDS011;19221;42.656;21.156;2023-04-07T14:26:14;25.17;;;17.95;;
32198;SDS011;19221;42.656;21.156;2023-04-07T14:28:40;19.17;;;13.90;;
32198;SDS011;19221;42.656;21.156;2023-04-07T14:31:06;22.17;;;15.73;;
32198;SDS011;19221;42.656;21.156;2023-04-07T14:33:36;23.48;;;14.73;;
32198;SDS011;19221;42.656;21.156;2023-04-07T14:36:01;23.80;;;14.95;;
32198;SDS011;19221;42.656;21.156;2023-04-07T14:38:27;20.25;;;12.23;;
32198;SDS011;19221;42.656;21.156;2023-04-07T14:40:53;21.38;;;14.52;;
32198;SDS011;19221;42.656;21.156;2023-04-07T14:43:18;29.42;;;17.95;;
32198;SDS011;19221;42.656;21.156;2023-04-07T14:45:44;21.55;;;13.52;;
32198;SDS011;19221;42.656;21.156;2023-04-07T14:48:10;13.30;;;9.35;;
32198;SDS011;19221;42.656;21.156;2023-04-07T14:50:36;21.83;;;12.63;;
32198;SDS011;19221;42.656;21.156;2023-04-07T14:53:01;20.08;;;12.70;;
32198;SDS011;19221;42.656;21.156;2023-04-07T14:55:27;24.33;;;15.45;;
32198;SDS011;19221;42.656;21.156;2023-04-07T14:57:55;25.55;;;16.55;;
32198;SDS011;19221;42.656;21.156;2023-04-07T15:00:21;24.77;;;15.95;;
32198;SDS011;19221;42.656;21.156;2023-04-07T15:02:46;20.23;;;12.90;;
32198;SDS011;19221;42.656;21.156;2023-04-07T15:05:12;15.43;;;10.82;;
32198;SDS011;19221;42.656;21.156;2023-04-07T15:07:38;15.75;;;11.07;;